sensor_id;sensor_type;location;lat;lon;timestamp;temperature;humidity
20827;DHT22;10574;52.508;13.236;2023-12-29T00:02:20;8.00;99.90
20827;DHT22;10574;52.508;13.236;2023-12-29T00:04:47;8.00;99.90
20827;DHT22;10574;52.508;13.236;2023-12-29T00:07:16;8.00;99.90
20827;DHT22;10574;52.508;13.236;2023-12-29T00:09:44;8.10;99.90
20827;DHT22;10574;52.508;13.236;2023-12-29T00:12:11;8.10;99.90
20827;DHT22;10574;52.508;13.236;2023-12-29T00:14:40;8.10;99.90
20827;DHT22;10574;52.508;13.236;2023-12-29T00:17:08;8.10;99.90
20827;DHT22;10574;52.508;13.236;2023-12-29T00:19:35;8.20;99.90
20827;DHT22;10574;52.508;13.236;2023-12-29T00:22:04;8.20;99.90
20827;DHT22;10574;52.508;13.236;2023-12-29T00:24:32;8.20;99.90
20827;DHT22;10574;52.508;13.236;2023-12-29T00:27:00;8.20;99.90
20827;DHT22;10574;52.508;13.236;2023-12-29T00:29:28;8.20;99.90
20827;DHT22;10574;52.508;13.236;2023-12-29T00:31:57;8.20;99.90
20827;DHT22;10574;52.508;13.236;2023-12-29T00:34:26;8.20;99.90
20827;DHT22;10574;52.508;13.236;2023-12-29T00:36:54;8.20;99.90
20827;DHT22;10574;52.508;13.236;2023-12-29T00:39:22;8.20;99.90
20827;DHT22;10574;52.508;13.236;2023-12-29T00:41:51;8.20;99.90
20827;DHT22;10574;52.508;13.236;2023-12-29T00:44:19;8.20;99.90
20827;DHT22;10574;52.508;13.236;2023-12-29T00:46:46;8.20;99.90
20827;DHT22;10574;52.508;13.236;2023-12-29T00:49:14;8.20;99.90
20827;DHT22;10574;52.508;13.236;2023-12-29T00:51:43;8.20;99.90
20827;DHT22;10574;52.508;13.236;2023-12-29T00:54:10;8.20;99.90
20827;DHT22;10574;52.508;13.236;2023-12-29T00:56:38;8.20;99.90
20827;DHT22;10574;52.508;13.236;2023-12-29T00:59:06;8.20;99.90
20827;DHT22;10574;52.508;13.236;2023-12-29T01:01:34;8.20;99.90
20827;DHT22;10574;52.508;13.236;2023-12-29T01:04:02;8.20;99.90
20827;DHT22;10574;52.508;13.236;2023-12-29T01:06:30;8.20;99.90
20827;DHT22;10574;52.508;13.236;2023-12-29T01:08:57;8.20;99.90
20827;DHT22;10574;52.508;13.236;2023-12-29T01:11:25;8.20;99.90
20827;DHT22;10574;52.508;13.236;2023-12-29T01:13:53;8.20;99.90
20827;DHT22;10574;52.508;13.236;2023-12-29T01:16:21;8.20;99.90
20827;DHT22;10574;52.508;13.236;2023-12-29T01:18:49;8.20;99.90
20827;DHT22;10574;52.508;13.236;2023-12-29T01:21:16;8.30;99.90
20827;DHT22;10574;52.508;13.236;2023-12-29T01:23:44;8.20;99.90
20827;DHT22;10574;52.508;13.236;2023-12-29T01:26:12;8.30;99.90
20827;DHT22;10574;52.508;13.236;2023-12-29T01:28:39;8.30;99.90
20827;DHT22;10574;52.508;13.236;2023-12-29T01:31:07;8.30;99.90
20827;DHT22;10574;52.508;13.236;2023-12-29T01:33:36;8.30;99.90
20827;DHT22;10574;52.508;13.236;2023-12-29T01:36:03;8.30;99.90
20827;DHT22;10574;52.508;13.236;2023-12-29T01:38:31;8.30;99.90
20827;DHT22;10574;52.508;13.236;2023-12-29T01:40:59;8.30;99.90
20827;DHT22;10574;52.508;13.236;2023-12-29T01:43:27;8.30;99.90
20827;DHT22;10574;52.508;13.236;2023-12-29T01:45:54;8.30;99.90
20827;DHT22;10574;52.508;13.236;2023-12-29T01:48:23;8.30;99.90
20827;DHT22;10574;52.508;13.236;2023-12-29T01:50:52;8.30;99.90
20827;DHT22;10574;52.508;13.236;2023-12-29T01:53:20;8.40;99.90
20827;DHT22;10574;52.508;13.236;2023-12-29T01:55:49;8.40;99.90
20827;DHT22;10574;52.508;13.236;2023-12-29T01:58:17;8.40;99.90
20827;DHT22;10574;52.508;13.236;2023-12-29T02:00:44;8.40;99.90
20827;DHT22;10574;52.508;13.236;2023-12-29T02:03:12;8.40;99.90
20827;DHT22;10574;52.508;13.236;2023-12-29T02:05:41;8.50;99.90
20827;DHT22;10574;52.508;13.236;2023-12-29T02:08:10;8.50;99.90
20827;DHT22;10574;52.508;13.236;2023-12-29T02:10:38;8.50;99.90
20827;DHT22;10574;52.508;13.236;2023-12-29T02:13:06;8.50;99.90
20827;DHT22;10574;52.508;13.236;2023-12-29T02:15:34;8.50;99.90
20827;DHT22;10574;52.508;13.236;2023-12-29T02:18:03;8.50;99.90
20827;DHT22;10574;52.508;13.236;2023-12-29T02:20:33;8.50;99.90
20827;DHT22;10574;52.508;13.236;2023-12-29T02:23:02;8.50;99.90
20827;DHT22;10574;52.508;13.236;2023-12-29T02:25:30;8.50;99.90
20827;DHT22;10574;52.508;13.236;2023-12-29T02:28:15;8.50;99.90
20827;DHT22;10574;52.508;13.236;2023-12-29T02:30:43;8.50;99.90
20827;DHT22;10574;52.508;13.236;2023-12-29T02:33:16;8.50;99.90
20827;DHT22;10574;52.508;13.236;2023-12-29T02:35:44;8.50;99.90
20827;DHT22;10574;52.508;13.236;2023-12-29T02:38:13;8.40;99.90
20827;DHT22;10574;52.508;13.236;2023-12-29T02:40:41;8.40;99.90
20827;DHT22;10574;52.508;13.236;2023-12-29T02:43:09;8.40;99.90
20827;DHT22;10574;52.508;13.236;2023-12-29T02:45:37;8.50;99.90
20827;DHT22;10574;52.508;13.236;2023-12-29T02:48:05;8.50;99.90
20827;DHT22;10574;52.508;13.236;2023-12-29T02:50:33;8.50;99.90
20827;DHT22;10574;52.508;13.236;2023-12-29T02:53:01;8.60;99.90
20827;DHT22;10574;52.508;13.236;2023-12-29T02:55:30;8.50;99.90
20827;DHT22;10574;52.508;13.236;2023-12-29T02:57:58;8.50;99.90
20827;DHT22;10574;52.508;13.236;2023-12-29T03:00:26;8.50;99.90
20827;DHT22;10574;52.508;13.236;2023-12-29T03:02:53;8.50;99.90
20827;DHT22;10574;52.508;13.236;2023-12-29T03:05:21;8.50;99.90
20827;DHT22;10574;52.508;13.236;2023-12-29T03:07:49;8.50;99.90
20827;DHT22;10574;52.508;13.236;2023-12-29T03:10:17;8.50;99.90
20827;DHT22;10574;52.508;13.236;2023-12-29T03:12:45;8.50;99.90
20827;DHT22;10574;52.508;13.236;2023-12-29T03:15:13;8.50;99.90
20827;DHT22;10574;52.508;13.236;2023-12-29T03:17:41;8.50;99.90
20827;DHT22;10574;52.508;13.236;2023-12-29T03:20:09;8.50;99.90
20827;DHT22;10574;52.508;13.236;2023-12-29T03:22:37;8.50;99.90
20827;DHT22;10574;52.508;13.236;2023-12-29T03:25:05;8.40;99.90
20827;DHT22;10574;52.508;13.236;2023-12-29T03:27:33;8.40;99.90
20827;DHT22;10574;52.508;13.236;2023-12-29T03:30:01;8.50;99.90
20827;DHT22;10574;52.508;13.236;2023-12-29T03:32:29;8.50;99.90
20827;DHT22;10574;52.508;13.236;2023-12-29T03:34:56;8.50;99.90
20827;DHT22;10574;52.508;13.236;2023-12-29T03:37:24;8.50;99.90
20827;DHT22;10574;52.508;13.236;2023-12-29T03:39:55;8.50;99.90
20827;DHT22;10574;52.508;13.236;2023-12-29T03:42:22;8.50;99.90
20827;DHT22;10574;52.508;13.236;2023-12-29T03:44:50;8.50;99.90
20827;DHT22;10574;52.508;13.236;2023-12-29T03:47:18;8.50;99.90
20827;DHT22;10574;52.508;13.236;2023-12-29T03:49:46;8.60;99.90
20827;DHT22;10574;52.508;13.236;2023-12-29T03:52:14;8.60;99.90
20827;DHT22;10574;52.508;13.236;2023-12-29T03:54:41;8.60;99.90
20827;DHT22;10574;52.508;13.236;2023-12-29T03:57:09;8.60;99.90
20827;DHT22;10574;52.508;13.236;2023-12-29T03:59:37;8.60;99.90
20827;DHT22;10574;52.508;13.236;2023-12-29T04:02:05;8.60;99.90
20827;DHT22;10574;52.508;13.236;2023-12-29T04:04:35;8.70;99.90
20827;DHT22;10574;52.508;13.236;2023-12-29T04:07:02;8.70;99.90
20827;DHT22;10574;52.508;13.236;2023-12-29T04:09:30;8.70;99.90
20827;DHT22;10574;52.508;13.236;2023-12-29T04:11:58;8.70;99.90
20827;DHT22;10574;52.508;13.236;2023-12-29T04:14:25;8.70;99.90
20827;DHT22;10574;52.508;13.236;2023-12-29T04:16:53;8.70;99.90
20827;DHT22;10574;52.508;13.236;2023-12-29T04:19:21;8.70;99.90
20827;DHT22;10574;52.508;13.236;2023-12-29T04:21:49;8.70;99.90
20827;DHT22;10574;52.508;13.236;2023-12-29T04:24:16;8.70;99.90
20827;DHT22;10574;52.508;13.236;2023-12-29T04:26:44;8.70;99.90
20827;DHT22;10574;52.508;13.236;2023-12-29T04:29:12;8.80;99.90
20827;DHT22;10574;52.508;13.236;2023-12-29T04:31:41;8.80;99.90
20827;DHT22;10574;52.508;13.236;2023-12-29T04:34:09;8.80;99.90
20827;DHT22;10574;52.508;13.236;2023-12-29T04:36:37;8.80;99.90
20827;DHT22;10574;52.508;13.236;2023-12-29T04:39:05;8.80;99.90
20827;DHT22;10574;52.508;13.236;2023-12-29T04:41:34;8.80;99.90
20827;DHT22;10574;52.508;13.236;2023-12-29T04:44:02;8.80;99.90
20827;DHT22;10574;52.508;13.236;2023-12-29T04:46:31;8.70;99.90
20827;DHT22;10574;52.508;13.236;2023-12-29T04:48:58;8.70;99.90
20827;DHT22;10574;52.508;13.236;2023-12-29T04:51:26;8.70;99.90
20827;DHT22;10574;52.508;13.236;2023-12-29T04:53:54;8.70;99.90
20827;DHT22;10574;52.508;13.236;2023-12-29T04:56:22;8.70;99.90
20827;DHT22;10574;52.508;13.236;2023-12-29T04:58:51;8.70;99.90
20827;DHT22;10574;52.508;13.236;2023-12-29T05:01:19;8.70;99.90
20827;DHT22;10574;52.508;13.236;2023-12-29T05:03:47;8.70;99.90
20827;DHT22;10574;52.508;13.236;2023-12-29T05:06:14;8.70;99.90
20827;DHT22;10574;52.508;13.236;2023-12-29T05:08:42;8.70;99.90
20827;DHT22;10574;52.508;13.236;2023-12-29T05:11:10;8.70;99.90
20827;DHT22;10574;52.508;13.236;2023-12-29T05:13:37;8.60;99.90
20827;DHT22;10574;52.508;13.236;2023-12-29T05:16:06;8.60;99.90
20827;DHT22;10574;52.508;13.236;2023-12-29T05:18:34;8.70;99.90
20827;DHT22;10574;52.508;13.236;2023-12-29T05:21:01;8.70;99.90
20827;DHT22;10574;52.508;13.236;2023-12-29T05:23:29;8.70;99.90
20827;DHT22;10574;52.508;13.236;2023-12-29T05:25:57;8.70;99.90
20827;DHT22;10574;52.508;13.236;2023-12-29T05:28:24;8.80;99.90
20827;DHT22;10574;52.508;13.236;2023-12-29T05:30:52;8.70;99.90
20827;DHT22;10574;52.508;13.236;2023-12-29T05:33:20;8.70;99.90
20827;DHT22;10574;52.508;13.236;2023-12-29T05:35:49;8.80;99.90
20827;DHT22;10574;52.508;13.236;2023-12-29T05:38:17;8.80;99.90
20827;DHT22;10574;52.508;13.236;2023-12-29T05:40:45;8.80;99.90
20827;DHT22;10574;52.508;13.236;2023-12-29T05:43:12;8.80;99.90
20827;DHT22;10574;52.508;13.236;2023-12-29T05:45:41;8.80;99.90
20827;DHT22;10574;52.508;13.236;2023-12-29T05:48:08;8.90;99.90
20827;DHT22;10574;52.508;13.236;2023-12-29T05:50:37;8.90;99.90
20827;DHT22;10574;52.508;13.236;2023-12-29T05:53:05;8.80;99.90
20827;DHT22;10574;52.508;13.236;2023-12-29T05:55:33;8.90;99.90
20827;DHT22;10574;52.508;13.236;2023-12-29T05:58:01;8.80;99.90
20827;DHT22;10574;52.508;13.236;2023-12-29T06:00:28;8.80;99.90
20827;DHT22;10574;52.508;13.236;2023-12-29T06:02:56;8.80;99.90
20827;DHT22;10574;52.508;13.236;2023-12-29T06:05:24;8.80;99.90
20827;DHT22;10574;52.508;13.236;2023-12-29T06:07:52;8.80;99.90
20827;DHT22;10574;52.508;13.236;2023-12-29T06:10:20;8.80;99.90
20827;DHT22;10574;52.508;13.236;2023-12-29T06:12:48;8.80;99.90
20827;DHT22;10574;52.508;13.236;2023-12-29T06:15:15;8.90;99.90
20827;DHT22;10574;52.508;13.236;2023-12-29T06:17:43;8.90;99.90
20827;DHT22;10574;52.508;13.236;2023-12-29T06:20:11;9.00;99.90
20827;DHT22;10574;52.508;13.236;2023-12-29T06:22:42;9.00;99.90
20827;DHT22;10574;52.508;13.236;2023-12-29T06:25:11;9.00;99.90
20827;DHT22;10574;52.508;13.236;2023-12-29T06:27:41;9.10;99.90
20827;DHT22;10574;52.508;13.236;2023-12-29T06:30:10;9.10;99.90
20827;DHT22;10574;52.508;13.236;2023-12-29T06:32:41;9.10;99.90
20827;DHT22;10574;52.508;13.236;2023-12-29T06:35:09;9.10;99.90
20827;DHT22;10574;52.508;13.236;2023-12-29T06:37:39;9.20;99.90
20827;DHT22;10574;52.508;13.236;2023-12-29T06:40:09;9.20;99.90
20827;DHT22;10574;52.508;13.236;2023-12-29T06:42:37;9.30;99.90
20827;DHT22;10574;52.508;13.236;2023-12-29T06:45:05;9.30;99.90
20827;DHT22;10574;52.508;13.236;2023-12-29T06:47:34;9.30;99.90
20827;DHT22;10574;52.508;13.236;2023-12-29T06:50:03;9.30;99.90
20827;DHT22;10574;52.508;13.236;2023-12-29T06:52:31;9.30;99.90
20827;DHT22;10574;52.508;13.236;2023-12-29T06:55:01;9.30;99.90
20827;DHT22;10574;52.508;13.236;2023-12-29T06:57:28;9.30;99.90
20827;DHT22;10574;52.508;13.236;2023-12-29T06:59:56;9.30;99.90
20827;DHT22;10574;52.508;13.236;2023-12-29T07:02:24;9.30;99.90
20827;DHT22;10574;52.508;13.236;2023-12-29T07:04:52;9.30;99.90
20827;DHT22;10574;52.508;13.236;2023-12-29T07:07:20;9.30;99.90
20827;DHT22;10574;52.508;13.236;2023-12-29T07:09:47;9.40;99.90
20827;DHT22;10574;52.508;13.236;2023-12-29T07:12:15;9.30;99.90
20827;DHT22;10574;52.508;13.236;2023-12-29T07:14:43;9.30;99.90
20827;DHT22;10574;52.508;13.236;2023-12-29T07:17:11;9.30;99.90
20827;DHT22;10574;52.508;13.236;2023-12-29T07:19:38;9.30;99.90
20827;DHT22;10574;52.508;13.236;2023-12-29T07:22:06;9.30;99.90
20827;DHT22;10574;52.508;13.236;2023-12-29T07:24:35;9.30;99.90
20827;DHT22;10574;52.508;13.236;2023-12-29T07:27:03;9.30;99.90
20827;DHT22;10574;52.508;13.236;2023-12-29T07:29:31;9.30;99.90
20827;DHT22;10574;52.508;13.236;2023-12-29T07:31:59;9.30;99.90
20827;DHT22;10574;52.508;13.236;2023-12-29T07:34:27;9.30;99.90
20827;DHT22;10574;52.508;13.236;2023-12-29T07:36:56;9.30;99.90
20827;DHT22;10574;52.508;13.236;2023-12-29T07:39:26;9.30;99.90
20827;DHT22;10574;52.508;13.236;2023-12-29T07:41:54;9.30;99.90
20827;DHT22;10574;52.508;13.236;2023-12-29T07:44:22;9.30;99.90
20827;DHT22;10574;52.508;13.236;2023-12-29T07:46:50;9.30;99.90
20827;DHT22;10574;52.508;13.236;2023-12-29T07:49:18;9.30;99.90
20827;DHT22;10574;52.508;13.236;2023-12-29T07:51:47;9.30;99.90
20827;DHT22;10574;52.508;13.236;2023-12-29T07:54:14;9.30;99.90
20827;DHT22;10574;52.508;13.236;2023-12-29T07:56:42;9.30;99.90
20827;DHT22;10574;52.508;13.236;2023-12-29T07:59:11;9.30;99.90
20827;DHT22;10574;52.508;13.236;2023-12-29T08:01:39;9.40;99.90
20827;DHT22;10574;52.508;13.236;2023-12-29T08:04:07;9.40;99.90
20827;DHT22;10574;52.508;13.236;2023-12-29T08:06:39;9.50;99.90
20827;DHT22;10574;52.508;13.236;2023-12-29T08:09:07;9.60;99.90
20827;DHT22;10574;52.508;13.236;2023-12-29T08:11:34;9.60;99.90
20827;DHT22;10574;52.508;13.236;2023-12-29T08:14:02;9.60;99.90
20827;DHT22;10574;52.508;13.236;2023-12-29T08:16:30;9.70;99.90
20827;DHT22;10574;52.508;13.236;2023-12-29T08:18:59;9.80;99.90
20827;DHT22;10574;52.508;13.236;2023-12-29T08:21:27;9.80;99.90
20827;DHT22;10574;52.508;13.236;2023-12-29T08:23:55;9.80;99.90
20827;DHT22;10574;52.508;13.236;2023-12-29T08:26:23;9.80;99.90
20827;DHT22;10574;52.508;13.236;2023-12-29T08:28:52;9.80;99.90
20827;DHT22;10574;52.508;13.236;2023-12-29T08:31:20;9.90;99.90
20827;DHT22;10574;52.508;13.236;2023-12-29T08:33:49;9.90;99.90
20827;DHT22;10574;52.508;13.236;2023-12-29T08:36:19;9.90;99.90
20827;DHT22;10574;52.508;13.236;2023-12-29T08:38:47;9.90;99.90
20827;DHT22;10574;52.508;13.236;2023-12-29T08:41:15;10.00;99.90
20827;DHT22;10574;52.508;13.236;2023-12-29T08:43:44;10.00;99.90
20827;DHT22;10574;52.508;13.236;2023-12-29T08:46:12;10.00;99.90
20827;DHT22;10574;52.508;13.236;2023-12-29T08:48:40;10.00;99.90
20827;DHT22;10574;52.508;13.236;2023-12-29T08:51:08;10.00;99.90
20827;DHT22;10574;52.508;13.236;2023-12-29T08:53:35;10.00;99.90
20827;DHT22;10574;52.508;13.236;2023-12-29T08:56:04;10.00;99.90
20827;DHT22;10574;52.508;13.236;2023-12-29T08:58:32;10.00;99.90
20827;DHT22;10574;52.508;13.236;2023-12-29T09:01:00;9.90;99.90
20827;DHT22;10574;52.508;13.236;2023-12-29T09:03:28;10.00;99.90
20827;DHT22;10574;52.508;13.236;2023-12-29T09:05:56;10.00;99.90
20827;DHT22;10574;52.508;13.236;2023-12-29T09:08:25;10.10;99.90
20827;DHT22;10574;52.508;13.236;2023-12-29T09:12:05;10.10;99.90
20827;DHT22;10574;52.508;13.236;2023-12-29T09:14:33;10.20;99.90
20827;DHT22;10574;52.508;13.236;2023-12-29T09:17:02;10.20;99.90
20827;DHT22;10574;52.508;13.236;2023-12-29T09:19:30;10.30;99.90
20827;DHT22;10574;52.508;13.236;2023-12-29T09:21:59;10.30;99.90
20827;DHT22;10574;52.508;13.236;2023-12-29T09:24:27;10.30;99.90
20827;DHT22;10574;52.508;13.236;2023-12-29T09:26:57;10.30;99.90
20827;DHT22;10574;52.508;13.236;2023-12-29T09:29:27;10.30;99.90
20827;DHT22;10574;52.508;13.236;2023-12-29T09:31:58;10.40;99.90
20827;DHT22;10574;52.508;13.236;2023-12-29T09:34:24;10.40;99.90
20827;DHT22;10574;52.508;13.236;2023-12-29T09:36:51;10.40;99.90
20827;DHT22;10574;52.508;13.236;2023-12-29T09:39:19;10.50;99.90
20827;DHT22;10574;52.508;13.236;2023-12-29T09:41:52;10.50;99.90
20827;DHT22;10574;52.508;13.236;2023-12-29T09:44:27;10.50;99.90
20827;DHT22;10574;52.508;13.236;2023-12-29T09:47:00;10.50;99.90
20827;DHT22;10574;52.508;13.236;2023-12-29T09:49:23;10.50;99.90
20827;DHT22;10574;52.508;13.236;2023-12-29T09:51:52;10.40;99.90
20827;DHT22;10574;52.508;13.236;2023-12-29T09:54:21;10.30;99.90
20827;DHT22;10574;52.508;13.236;2023-12-29T09:56:50;10.30;99.90
20827;DHT22;10574;52.508;13.236;2023-12-29T09:59:19;10.30;99.90
20827;DHT22;10574;52.508;13.236;2023-12-29T10:01:47;10.30;99.90
20827;DHT22;10574;52.508;13.236;2023-12-29T10:04:15;10.40;99.90
20827;DHT22;10574;52.508;13.236;2023-12-29T10:06:44;10.40;99.90
20827;DHT22;10574;52.508;13.236;2023-12-29T10:09:15;10.50;99.90
20827;DHT22;10574;52.508;13.236;2023-12-29T10:11:45;10.50;99.90
20827;DHT22;10574;52.508;13.236;2023-12-29T10:14:26;10.50;99.90
20827;DHT22;10574;52.508;13.236;2023-12-29T10:17:03;10.60;99.90
20827;DHT22;10574;52.508;13.236;2023-12-29T10:19:46;10.60;99.90
20827;DHT22;10574;52.508;13.236;2023-12-29T10:22:21;10.70;99.90
20827;DHT22;10574;52.508;13.236;2023-12-29T10:24:49;10.80;99.90
20827;DHT22;10574;52.508;13.236;2023-12-29T10:27:20;10.80;99.90
20827;DHT22;10574;52.508;13.236;2023-12-29T10:29:48;10.90;99.90
20827;DHT22;10574;52.508;13.236;2023-12-29T10:32:15;10.90;99.90
20827;DHT22;10574;52.508;13.236;2023-12-29T10:34:49;11.00;99.90
20827;DHT22;10574;52.508;13.236;2023-12-29T10:37:22;11.00;99.90
20827;DHT22;10574;52.508;13.236;2023-12-29T10:39:56;11.00;99.90
20827;DHT22;10574;52.508;13.236;2023-12-29T10:42:24;11.00;99.90
20827;DHT22;10574;52.508;13.236;2023-12-29T10:45:06;11.00;99.90
20827;DHT22;10574;52.508;13.236;2023-12-29T10:47:36;11.00;99.90
20827;DHT22;10574;52.508;13.236;2023-12-29T10:50:06;11.00;99.90
20827;DHT22;10574;52.508;13.236;2023-12-29T10:52:35;11.10;99.90
20827;DHT22;10574;52.508;13.236;2023-12-29T10:55:08;11.10;99.90
20827;DHT22;10574;52.508;13.236;2023-12-29T10:57:37;11.20;99.90
20827;DHT22;10574;52.508;13.236;2023-12-29T11:00:06;11.20;99.90
20827;DHT22;10574;52.508;13.236;2023-12-29T11:02:35;11.20;99.90
20827;DHT22;10574;52.508;13.236;2023-12-29T11:05:07;11.20;99.90
20827;DHT22;10574;52.508;13.236;2023-12-29T11:07:38;11.20;99.90
20827;DHT22;10574;52.508;13.236;2023-12-29T11:10:08;11.20;99.90
20827;DHT22;10574;52.508;13.236;2023-12-29T11:12:37;11.20;99.90
20827;DHT22;10574;52.508;13.236;2023-12-29T11:15:06;11.30;99.90
20827;DHT22;10574;52.508;13.236;2023-12-29T11:17:36;11.30;99.90
20827;DHT22;10574;52.508;13.236;2023-12-29T11:20:07;11.30;99.90
20827;DHT22;10574;52.508;13.236;2023-12-29T11:22:35;11.20;99.90
20827;DHT22;10574;52.508;13.236;2023-12-29T11:25:04;11.30;99.90
20827;DHT22;10574;52.508;13.236;2023-12-29T11:27:34;11.20;99.90
20827;DHT22;10574;52.508;13.236;2023-12-29T11:30:04;11.20;99.90
20827;DHT22;10574;52.508;13.236;2023-12-29T11:37:59;11.30;99.90
20827;DHT22;10574;52.508;13.236;2023-12-29T11:40:41;11.30;99.90
20827;DHT22;10574;52.508;13.236;2023-12-29T11:43:07;11.30;99.90
20827;DHT22;10574;52.508;13.236;2023-12-29T11:45:36;11.30;99.90
20827;DHT22;10574;52.508;13.236;2023-12-29T11:48:04;11.30;99.90
20827;DHT22;10574;52.508;13.236;2023-12-29T11:50:36;11.20;99.90
20827;DHT22;10574;52.508;13.236;2023-12-29T11:53:06;11.20;99.90
20827;DHT22;10574;52.508;13.236;2023-12-29T11:55:38;11.20;99.90
20827;DHT22;10574;52.508;13.236;2023-12-29T11:58:26;11.20;99.90
20827;DHT22;10574;52.508;13.236;2023-12-29T12:00:57;11.20;99.90
20827;DHT22;10574;52.508;13.236;2023-12-29T12:03:32;11.20;99.90
20827;DHT22;10574;52.508;13.236;2023-12-29T12:06:00;11.20;99.90
20827;DHT22;10574;52.508;13.236;2023-12-29T12:08:34;11.10;99.90
20827;DHT22;10574;52.508;13.236;2023-12-29T12:13:59;11.10;99.90
20827;DHT22;10574;52.508;13.236;2023-12-29T12:16:50;11.00;99.90
20827;DHT22;10574;52.508;13.236;2023-12-29T12:19:20;11.00;99.90
20827;DHT22;10574;52.508;13.236;2023-12-29T12:21:52;11.00;99.90
20827;DHT22;10574;52.508;13.236;2023-12-29T12:24:22;11.00;99.90
20827;DHT22;10574;52.508;13.236;2023-12-29T12:26:52;11.00;99.90
20827;DHT22;10574;52.508;13.236;2023-12-29T12:29:19;10.90;99.90
20827;DHT22;10574;52.508;13.236;2023-12-29T12:31:55;10.90;99.90
20827;DHT22;10574;52.508;13.236;2023-12-29T12:34:23;10.80;99.90
20827;DHT22;10574;52.508;13.236;2023-12-29T12:36:52;10.80;99.90
20827;DHT22;10574;52.508;13.236;2023-12-29T12:39:21;10.70;99.90
20827;DHT22;10574;52.508;13.236;2023-12-29T12:41:50;10.70;99.90
20827;DHT22;10574;52.508;13.236;2023-12-29T12:44:17;10.60;99.90
20827;DHT22;10574;52.508;13.236;2023-12-29T12:46:56;10.50;99.90
20827;DHT22;10574;52.508;13.236;2023-12-29T12:49:24;10.50;99.90
20827;DHT22;10574;52.508;13.236;2023-12-29T12:51:53;10.50;99.90
20827;DHT22;10574;52.508;13.236;2023-12-29T12:54:21;10.40;99.90
20827;DHT22;10574;52.508;13.236;2023-12-29T12:56:51;10.50;99.90
20827;DHT22;10574;52.508;13.236;2023-12-29T12:59:18;10.50;99.90
20827;DHT22;10574;52.508;13.236;2023-12-29T13:01:46;10.40;99.90
20827;DHT22;10574;52.508;13.236;2023-12-29T13:04:15;10.40;99.90
20827;DHT22;10574;52.508;13.236;2023-12-29T13:06:44;10.40;99.90
20827;DHT22;10574;52.508;13.236;2023-12-29T13:09:12;10.40;99.90
20827;DHT22;10574;52.508;13.236;2023-12-29T13:11:41;10.30;99.90
20827;DHT22;10574;52.508;13.236;2023-12-29T13:14:08;10.30;99.90
20827;DHT22;10574;52.508;13.236;2023-12-29T13:16:38;10.30;99.90
20827;DHT22;10574;52.508;13.236;2023-12-29T13:19:17;10.30;99.90
20827;DHT22;10574;52.508;13.236;2023-12-29T13:21:50;10.30;99.90
20827;DHT22;10574;52.508;13.236;2023-12-29T13:24:25;10.40;99.90
20827;DHT22;10574;52.508;13.236;2023-12-29T13:26:52;10.40;99.90
20827;DHT22;10574;52.508;13.236;2023-12-29T13:29:22;10.50;99.90
20827;DHT22;10574;52.508;13.236;2023-12-29T13:31:53;10.50;99.90
20827;DHT22;10574;52.508;13.236;2023-12-29T13:34:27;10.50;99.90
20827;DHT22;10574;52.508;13.236;2023-12-29T13:36:54;10.40;99.90
20827;DHT22;10574;52.508;13.236;2023-12-29T13:39:46;10.50;99.90
20827;DHT22;10574;52.508;13.236;2023-12-29T13:42:15;10.50;99.90
20827;DHT22;10574;52.508;13.236;2023-12-29T13:44:44;10.50;99.90
20827;DHT22;10574;52.508;13.236;2023-12-29T13:47:14;10.50;99.90
20827;DHT22;10574;52.508;13.236;2023-12-29T13:49:43;10.50;99.90
20827;DHT22;10574;52.508;13.236;2023-12-29T13:52:11;10.50;99.90
20827;DHT22;10574;52.508;13.236;2023-12-29T13:54:41;10.50;99.90
20827;DHT22;10574;52.508;13.236;2023-12-29T13:57:12;10.40;99.90
20827;DHT22;10574;52.508;13.236;2023-12-29T13:59:42;10.50;99.90
20827;DHT22;10574;52.508;13.236;2023-12-29T14:04:48;10.50;99.90
20827;DHT22;10574;52.508;13.236;2023-12-29T14:07:18;10.50;99.90
20827;DHT22;10574;52.508;13.236;2023-12-29T14:09:46;10.50;99.90
20827;DHT22;10574;52.508;13.236;2023-12-29T14:12:23;10.60;99.90
20827;DHT22;10574;52.508;13.236;2023-12-29T14:14:46;10.50;99.90
20827;DHT22;10574;52.508;13.236;2023-12-29T14:17:20;10.60;99.90
20827;DHT22;10574;52.508;13.236;2023-12-29T14:19:44;10.50;99.90
20827;DHT22;10574;52.508;13.236;2023-12-29T14:22:20;10.60;99.90
20827;DHT22;10574;52.508;13.236;2023-12-29T14:24:43;10.60;99.90
20827;DHT22;10574;52.508;13.236;2023-12-29T14:27:14;10.50;99.90
20827;DHT22;10574;52.508;13.236;2023-12-29T14:29:41;10.60;99.90
20827;DHT22;10574;52.508;13.236;2023-12-29T14:32:10;10.60;99.90
20827;DHT22;10574;52.508;13.236;2023-12-29T14:34:38;10.60;99.90
20827;DHT22;10574;52.508;13.236;2023-12-29T14:37:06;10.60;99.90
20827;DHT22;10574;52.508;13.236;2023-12-29T14:39:33;10.70;99.90
20827;DHT22;10574;52.508;13.236;2023-12-29T14:42:03;10.70;99.90
20827;DHT22;10574;52.508;13.236;2023-12-29T14:44:31;10.60;99.90
20827;DHT22;10574;52.508;13.236;2023-12-29T14:47:00;10.70;99.90
20827;DHT22;10574;52.508;13.236;2023-12-29T14:49:28;10.70;99.90
20827;DHT22;10574;52.508;13.236;2023-12-29T14:51:55;10.70;99.90
20827;DHT22;10574;52.508;13.236;2023-12-29T14:54:23;10.70;99.90
20827;DHT22;10574;52.508;13.236;2023-12-29T14:56:54;10.80;99.90
20827;DHT22;10574;52.508;13.236;2023-12-29T14:59:22;10.80;99.90
20827;DHT22;10574;52.508;13.236;2023-12-29T15:01:50;10.70;99.90
20827;DHT22;10574;52.508;13.236;2023-12-29T15:04:18;10.70;99.90
20827;DHT22;10574;52.508;13.236;2023-12-29T15:06:45;10.60;99.90
20827;DHT22;10574;52.508;13.236;2023-12-29T15:09:13;10.50;99.90
20827;DHT22;10574;52.508;13.236;2023-12-29T15:11:41;10.40;99.90
20827;DHT22;10574;52.508;13.236;2023-12-29T15:14:09;10.40;99.90
20827;DHT22;10574;52.508;13.236;2023-12-29T15:16:37;10.40;99.90
20827;DHT22;10574;52.508;13.236;2023-12-29T15:19:04;10.40;99.90
20827;DHT22;10574;52.508;13.236;2023-12-29T15:21:33;10.40;99.90
20827;DHT22;10574;52.508;13.236;2023-12-29T15:24:01;10.40;99.90
20827;DHT22;10574;52.508;13.236;2023-12-29T15:26:30;10.50;99.90
20827;DHT22;10574;52.508;13.236;2023-12-29T15:28:57;10.40;99.90
20827;DHT22;10574;52.508;13.236;2023-12-29T15:31:25;10.40;99.90
20827;DHT22;10574;52.508;13.236;2023-12-29T15:33:54;10.30;99.90
20827;DHT22;10574;52.508;13.236;2023-12-29T15:36:22;10.30;99.90
20827;DHT22;10574;52.508;13.236;2023-12-29T15:38:51;10.30;99.90
20827;DHT22;10574;52.508;13.236;2023-12-29T15:41:19;10.30;99.90
20827;DHT22;10574;52.508;13.236;2023-12-29T15:43:47;10.20;99.90
20827;DHT22;10574;52.508;13.236;2023-12-29T15:46:20;10.20;99.90
20827;DHT22;10574;52.508;13.236;2023-12-29T15:48:52;10.20;99.90